Terminal Aerodrome Forecast
Issued by NWS Duluth, MN

Home | Current Version | Previous Version | Text Only | Print | Product List | Glossary On
Versions: 1 2 3 4 5 6 7 8 9 10 11 12 13 14 15 16 17 18 19 20 21 22
000
FTUS43 KDLH 210907 AAC
TAFDLH
TAF AMD
KDLH 210907Z 2109/2206 30005KT P6SM SCT100 BKN250
      TEMPO 2111/2115 2SM BR SCT010
     FM211500 33003KT 4SM BR SCT010 BKN250
     FM211800 36005KT P6SM BKN035
     FM212000 03005KT P6SM OVC040
     FM220200 07008KT 5SM BR OVC008=

USA.gov is the U.S. government's official web portal to all federal, state and local government web resources and services.